Draperstown, United Kingdom
Current Conditions -  °F | °C
As of 9:50 AM on Saturday 25 Oct 2014 (Local Time) from EGAE Reporting Station
Broken Clouds Broken Clouds  
Wind Chill: 52°   Ceiling: 2500
Heat Index: 52°   Visibility: 6mi
Dew Point: 48°   Wind: 18mph
Humidity: 88%   Direction: 240°WSW
Pressure: 29.68"   Gusts: NA
Location:  54.8°N, 6.77°W
Report Text: EGAE 250850Z 24016KT 9000 FEW007 SCT015 BKN025 11/09 Q1005
Loading
Personal Weather Stations






























Interactive Weather Map
Tropical Storm Tracking
New forecast layout! Learn more

10-Day Weather Forecast

Advertisements
Track Severe Weather on mobile